sensor_id;sensor_type;location;lat;lon;timestamp;temperature;humidity
35700;DHT22;21818;51.078;12.108;2022-12-24T00:02:20;13.90;87.20
35700;DHT22;21818;51.078;12.108;2022-12-24T00:04:45;13.90;87.20
35700;DHT22;21818;51.078;12.108;2022-12-24T00:07:11;13.90;87.20
35700;DHT22;21818;51.078;12.108;2022-12-24T00:09:36;13.90;87.10
35700;DHT22;21818;51.078;12.108;2022-12-24T00:12:02;13.90;87.20
35700;DHT22;21818;51.078;12.108;2022-12-24T00:14:28;13.90;87.20
35700;DHT22;21818;51.078;12.108;2022-12-24T00:16:54;13.90;87.10
35700;DHT22;21818;51.078;12.108;2022-12-24T00:19:19;13.90;87.10
35700;DHT22;21818;51.078;12.108;2022-12-24T00:21:45;13.90;87.50
35700;DHT22;21818;51.078;12.108;2022-12-24T00:24:10;13.90;87.00
35700;DHT22;21818;51.078;12.108;2022-12-24T00:26:36;13.90;87.00
35700;DHT22;21818;51.078;12.108;2022-12-24T00:29:02;13.90;87.10
35700;DHT22;21818;51.078;12.108;2022-12-24T00:31:27;13.90;87.00
35700;DHT22;21818;51.078;12.108;2022-12-24T00:33:53;13.90;87.00
35700;DHT22;21818;51.078;12.108;2022-12-24T00:36:19;13.90;86.90
35700;DHT22;21818;51.078;12.108;2022-12-24T00:38:45;13.90;86.90
35700;DHT22;21818;51.078;12.108;2022-12-24T00:41:12;13.90;86.90
35700;DHT22;21818;51.078;12.108;2022-12-24T00:43:55;13.90;87.00
35700;DHT22;21818;51.078;12.108;2022-12-24T00:46:21;13.90;86.90
35700;DHT22;21818;51.078;12.108;2022-12-24T00:48:47;13.90;86.90
35700;DHT22;21818;51.078;12.108;2022-12-24T00:51:13;13.90;86.90
35700;DHT22;21818;51.078;12.108;2022-12-24T00:53:39;13.80;86.80
35700;DHT22;21818;51.078;12.108;2022-12-24T00:56:05;13.80;86.90
35700;DHT22;21818;51.078;12.108;2022-12-24T00:58:30;13.90;86.90
35700;DHT22;21818;51.078;12.108;2022-12-24T01:00:56;13.90;86.90
35700;DHT22;21818;51.078;12.108;2022-12-24T01:03:21;13.80;86.80
35700;DHT22;21818;51.078;12.108;2022-12-24T01:05:47;13.90;86.90
35700;DHT22;21818;51.078;12.108;2022-12-24T01:08:13;13.90;87.00
35700;DHT22;21818;51.078;12.108;2022-12-24T01:10:38;13.90;86.90
35700;DHT22;21818;51.078;12.108;2022-12-24T01:13:04;13.90;86.90
35700;DHT22;21818;51.078;12.108;2022-12-24T01:15:29;13.80;86.80
35700;DHT22;21818;51.078;12.108;2022-12-24T01:17:55;13.80;86.80
35700;DHT22;21818;51.078;12.108;2022-12-24T01:20:21;13.90;86.90
35700;DHT22;21818;51.078;12.108;2022-12-24T01:22:46;13.90;86.90
35700;DHT22;21818;51.078;12.108;2022-12-24T01:25:13;13.90;86.90
35700;DHT22;21818;51.078;12.108;2022-12-24T01:27:39;13.90;86.90
35700;DHT22;21818;51.078;12.108;2022-12-24T01:30:06;13.90;86.90
35700;DHT22;21818;51.078;12.108;2022-12-24T01:32:32;13.90;86.90
35700;DHT22;21818;51.078;12.108;2022-12-24T01:34:57;13.90;86.90
35700;DHT22;21818;51.078;12.108;2022-12-24T01:37:24;13.90;86.90
35700;DHT22;21818;51.078;12.108;2022-12-24T01:39:49;13.90;86.90
35700;DHT22;21818;51.078;12.108;2022-12-24T01:42:20;13.90;86.90
35700;DHT22;21818;51.078;12.108;2022-12-24T01:49:00;13.90;86.70
35700;DHT22;21818;51.078;12.108;2022-12-24T01:56:44;13.90;86.50
35700;DHT22;21818;51.078;12.108;2022-12-24T01:59:12;13.90;86.70
35700;DHT22;21818;51.078;12.108;2022-12-24T02:01:39;13.90;86.50
35700;DHT22;21818;51.078;12.108;2022-12-24T02:04:23;13.90;86.50
35700;DHT22;21818;51.078;12.108;2022-12-24T02:06:50;14.00;86.60
35700;DHT22;21818;51.078;12.108;2022-12-24T02:09:15;13.90;86.40
35700;DHT22;21818;51.078;12.108;2022-12-24T02:11:41;13.90;86.40
35700;DHT22;21818;51.078;12.108;2022-12-24T02:14:09;13.90;86.40
35700;DHT22;21818;51.078;12.108;2022-12-24T02:16:47;13.90;86.40
35700;DHT22;21818;51.078;12.108;2022-12-24T02:22:10;13.90;86.30
35700;DHT22;21818;51.078;12.108;2022-12-24T02:27:36;13.90;86.20
35700;DHT22;21818;51.078;12.108;2022-12-24T02:30:45;13.90;86.10
35700;DHT22;21818;51.078;12.108;2022-12-24T02:33:19;13.90;86.20
35700;DHT22;21818;51.078;12.108;2022-12-24T02:41:20;13.80;86.10
35700;DHT22;21818;51.078;12.108;2022-12-24T02:43:48;13.80;86.00
35700;DHT22;21818;51.078;12.108;2022-12-24T02:46:19;13.80;86.10
35700;DHT22;21818;51.078;12.108;2022-12-24T02:48:47;13.80;86.10
35700;DHT22;21818;51.078;12.108;2022-12-24T02:51:14;13.80;86.00
35700;DHT22;21818;51.078;12.108;2022-12-24T02:53:40;13.80;86.00
35700;DHT22;21818;51.078;12.108;2022-12-24T03:07:18;13.80;85.90
35700;DHT22;21818;51.078;12.108;2022-12-24T03:12:31;13.70;85.90
35700;DHT22;21818;51.078;12.108;2022-12-24T03:14:58;13.70;86.00
35700;DHT22;21818;51.078;12.108;2022-12-24T03:17:24;13.70;86.00
35700;DHT22;21818;51.078;12.108;2022-12-24T03:19:53;13.70;86.00
35700;DHT22;21818;51.078;12.108;2022-12-24T03:22:21;13.70;86.00
35700;DHT22;21818;51.078;12.108;2022-12-24T03:24:47;13.70;86.00
35700;DHT22;21818;51.078;12.108;2022-12-24T03:27:13;13.70;85.90
35700;DHT22;21818;51.078;12.108;2022-12-24T03:29:40;13.70;85.90
35700;DHT22;21818;51.078;12.108;2022-12-24T03:32:06;13.70;85.90
35700;DHT22;21818;51.078;12.108;2022-12-24T03:34:31;13.70;85.90
35700;DHT22;21818;51.078;12.108;2022-12-24T03:36:57;13.70;85.90
35700;DHT22;21818;51.078;12.108;2022-12-24T03:39:23;13.70;85.90
35700;DHT22;21818;51.078;12.108;2022-12-24T03:41:49;13.70;85.80
35700;DHT22;21818;51.078;12.108;2022-12-24T03:44:14;13.70;85.80
35700;DHT22;21818;51.078;12.108;2022-12-24T03:46:40;13.70;85.80
35700;DHT22;21818;51.078;12.108;2022-12-24T03:49:05;13.70;85.70
35700;DHT22;21818;51.078;12.108;2022-12-24T03:51:31;13.60;85.60
35700;DHT22;21818;51.078;12.108;2022-12-24T03:53:57;13.60;85.80
35700;DHT22;21818;51.078;12.108;2022-12-24T03:56:24;13.60;85.60
35700;DHT22;21818;51.078;12.108;2022-12-24T03:58:49;13.70;85.60
35700;DHT22;21818;51.078;12.108;2022-12-24T04:01:16;13.60;85.40
35700;DHT22;21818;51.078;12.108;2022-12-24T04:03:42;13.60;85.50
35700;DHT22;21818;51.078;12.108;2022-12-24T04:06:09;13.60;85.40
35700;DHT22;21818;51.078;12.108;2022-12-24T04:08:35;13.60;85.30
35700;DHT22;21818;51.078;12.108;2022-12-24T04:11:04;13.60;85.30
35700;DHT22;21818;51.078;12.108;2022-12-24T04:13:30;13.60;85.20
35700;DHT22;21818;51.078;12.108;2022-12-24T04:16:03;13.60;85.20
35700;DHT22;21818;51.078;12.108;2022-12-24T04:18:29;13.60;85.20
35700;DHT22;21818;51.078;12.108;2022-12-24T04:20:56;13.60;85.10
35700;DHT22;21818;51.078;12.108;2022-12-24T04:23:21;13.60;85.10
35700;DHT22;21818;51.078;12.108;2022-12-24T04:25:47;13.60;85.10
35700;DHT22;21818;51.078;12.108;2022-12-24T04:28:13;13.60;85.20
35700;DHT22;21818;51.078;12.108;2022-12-24T04:30:39;13.60;85.20
35700;DHT22;21818;51.078;12.108;2022-12-24T04:33:05;13.60;85.20
35700;DHT22;21818;51.078;12.108;2022-12-24T04:35:31;13.60;85.20
35700;DHT22;21818;51.078;12.108;2022-12-24T04:37:57;13.60;85.10
35700;DHT22;21818;51.078;12.108;2022-12-24T04:40:23;13.60;85.10
35700;DHT22;21818;51.078;12.108;2022-12-24T04:42:48;13.60;85.00
35700;DHT22;21818;51.078;12.108;2022-12-24T04:45:15;13.50;85.00
35700;DHT22;21818;51.078;12.108;2022-12-24T04:47:41;13.60;85.20
35700;DHT22;21818;51.078;12.108;2022-12-24T04:50:07;13.70;84.90
35700;DHT22;21818;51.078;12.108;2022-12-24T04:52:33;13.80;84.70
35700;DHT22;21818;51.078;12.108;2022-12-24T04:54:58;13.90;84.60
35700;DHT22;21818;51.078;12.108;2022-12-24T04:57:24;14.00;84.60
35700;DHT22;21818;51.078;12.108;2022-12-24T04:59:49;14.10;84.60
35700;DHT22;21818;51.078;12.108;2022-12-24T05:02:15;14.10;84.60
35700;DHT22;21818;51.078;12.108;2022-12-24T05:04:40;14.10;84.60
35700;DHT22;21818;51.078;12.108;2022-12-24T05:07:06;14.20;85.30
35700;DHT22;21818;51.078;12.108;2022-12-24T05:09:31;14.20;84.80
35700;DHT22;21818;51.078;12.108;2022-12-24T05:11:57;14.20;84.90
35700;DHT22;21818;51.078;12.108;2022-12-24T05:14:23;14.20;84.90
35700;DHT22;21818;51.078;12.108;2022-12-24T05:16:48;14.20;84.90
35700;DHT22;21818;51.078;12.108;2022-12-24T05:19:14;14.30;85.00
35700;DHT22;21818;51.078;12.108;2022-12-24T05:21:40;14.30;85.10
35700;DHT22;21818;51.078;12.108;2022-12-24T05:24:06;14.30;85.10
35700;DHT22;21818;51.078;12.108;2022-12-24T05:26:52;14.30;85.20
35700;DHT22;21818;51.078;12.108;2022-12-24T05:29:19;14.30;85.20
35700;DHT22;21818;51.078;12.108;2022-12-24T05:31:45;14.30;85.30
35700;DHT22;21818;51.078;12.108;2022-12-24T05:34:12;14.30;85.30
35700;DHT22;21818;51.078;12.108;2022-12-24T05:36:38;14.30;85.40
35700;DHT22;21818;51.078;12.108;2022-12-24T05:39:04;14.30;85.40
35700;DHT22;21818;51.078;12.108;2022-12-24T05:41:30;14.30;85.40
35700;DHT22;21818;51.078;12.108;2022-12-24T05:43:56;14.30;85.50
35700;DHT22;21818;51.078;12.108;2022-12-24T05:46:23;14.30;85.50
35700;DHT22;21818;51.078;12.108;2022-12-24T05:48:49;14.30;85.50
35700;DHT22;21818;51.078;12.108;2022-12-24T05:51:16;14.30;85.40
35700;DHT22;21818;51.078;12.108;2022-12-24T05:53:47;14.30;85.50
35700;DHT22;21818;51.078;12.108;2022-12-24T05:56:18;14.30;85.60
35700;DHT22;21818;51.078;12.108;2022-12-24T05:58:44;14.30;85.60
35700;DHT22;21818;51.078;12.108;2022-12-24T06:01:11;14.30;85.60
35700;DHT22;21818;51.078;12.108;2022-12-24T06:03:37;14.30;85.60
35700;DHT22;21818;51.078;12.108;2022-12-24T06:06:06;14.30;85.60
35700;DHT22;21818;51.078;12.108;2022-12-24T06:08:32;14.30;85.70
35700;DHT22;21818;51.078;12.108;2022-12-24T06:11:00;14.20;85.60
35700;DHT22;21818;51.078;12.108;2022-12-24T06:13:26;14.20;85.60
35700;DHT22;21818;51.078;12.108;2022-12-24T06:15:56;14.20;85.60
35700;DHT22;21818;51.078;12.108;2022-12-24T06:18:22;14.20;85.70
35700;DHT22;21818;51.078;12.108;2022-12-24T06:20:51;14.20;85.70
35700;DHT22;21818;51.078;12.108;2022-12-24T06:23:17;14.30;85.70
35700;DHT22;21818;51.078;12.108;2022-12-24T06:25:43;14.30;85.50
35700;DHT22;21818;51.078;12.108;2022-12-24T06:28:08;14.30;85.50
35700;DHT22;21818;51.078;12.108;2022-12-24T06:30:34;14.30;85.50
35700;DHT22;21818;51.078;12.108;2022-12-24T06:32:59;14.30;85.50
35700;DHT22;21818;51.078;12.108;2022-12-24T06:35:25;14.30;85.50
35700;DHT22;21818;51.078;12.108;2022-12-24T06:37:51;14.30;85.50
35700;DHT22;21818;51.078;12.108;2022-12-24T06:40:16;14.20;85.40
35700;DHT22;21818;51.078;12.108;2022-12-24T06:42:42;14.20;85.40
35700;DHT22;21818;51.078;12.108;2022-12-24T06:45:08;14.20;85.40
35700;DHT22;21818;51.078;12.108;2022-12-24T06:47:33;14.20;85.50
35700;DHT22;21818;51.078;12.108;2022-12-24T06:49:59;14.20;85.40
35700;DHT22;21818;51.078;12.108;2022-12-24T06:52:24;14.20;85.40
35700;DHT22;21818;51.078;12.108;2022-12-24T06:54:50;14.20;85.30
35700;DHT22;21818;51.078;12.108;2022-12-24T06:57:15;14.20;85.30
35700;DHT22;21818;51.078;12.108;2022-12-24T06:59:41;14.20;85.20
35700;DHT22;21818;51.078;12.108;2022-12-24T07:02:08;14.20;85.20
35700;DHT22;21818;51.078;12.108;2022-12-24T07:04:33;14.20;85.10
35700;DHT22;21818;51.078;12.108;2022-12-24T07:06:59;14.20;85.10
35700;DHT22;21818;51.078;12.108;2022-12-24T07:09:24;14.20;85.10
35700;DHT22;21818;51.078;12.108;2022-12-24T07:11:50;14.20;85.00
35700;DHT22;21818;51.078;12.108;2022-12-24T07:14:16;14.20;85.00
35700;DHT22;21818;51.078;12.108;2022-12-24T07:16:41;14.20;85.40
35700;DHT22;21818;51.078;12.108;2022-12-24T07:19:07;14.20;84.90
35700;DHT22;21818;51.078;12.108;2022-12-24T07:21:32;14.20;84.90
35700;DHT22;21818;51.078;12.108;2022-12-24T07:23:58;14.20;84.90
35700;DHT22;21818;51.078;12.108;2022-12-24T07:26:23;14.20;84.80
35700;DHT22;21818;51.078;12.108;2022-12-24T07:28:49;14.20;84.80
35700;DHT22;21818;51.078;12.108;2022-12-24T07:31:15;14.20;84.80
35700;DHT22;21818;51.078;12.108;2022-12-24T07:33:41;14.20;84.80
35700;DHT22;21818;51.078;12.108;2022-12-24T07:36:08;14.20;84.70
35700;DHT22;21818;51.078;12.108;2022-12-24T07:38:34;14.20;84.70
35700;DHT22;21818;51.078;12.108;2022-12-24T07:41:00;14.20;84.60
35700;DHT22;21818;51.078;12.108;2022-12-24T07:43:27;14.20;84.60
35700;DHT22;21818;51.078;12.108;2022-12-24T07:45:56;14.20;84.60
35700;DHT22;21818;51.078;12.108;2022-12-24T07:48:23;14.20;84.50
35700;DHT22;21818;51.078;12.108;2022-12-24T07:50:50;14.20;84.50
35700;DHT22;21818;51.078;12.108;2022-12-24T07:53:16;14.20;84.40
35700;DHT22;21818;51.078;12.108;2022-12-24T07:55:42;14.20;84.40
35700;DHT22;21818;51.078;12.108;2022-12-24T07:58:07;14.20;84.40
35700;DHT22;21818;51.078;12.108;2022-12-24T08:00:33;14.20;84.20
35700;DHT22;21818;51.078;12.108;2022-12-24T08:02:58;14.20;84.20
35700;DHT22;21818;51.078;12.108;2022-12-24T08:05:26;14.20;84.20
35700;DHT22;21818;51.078;12.108;2022-12-24T08:07:52;14.20;84.10
35700;DHT22;21818;51.078;12.108;2022-12-24T08:10:17;14.20;84.10
35700;DHT22;21818;51.078;12.108;2022-12-24T08:12:43;14.20;84.10
35700;DHT22;21818;51.078;12.108;2022-12-24T08:15:10;14.20;84.00
35700;DHT22;21818;51.078;12.108;2022-12-24T08:17:36;14.20;83.90
35700;DHT22;21818;51.078;12.108;2022-12-24T08:20:02;14.20;83.90
35700;DHT22;21818;51.078;12.108;2022-12-24T08:22:28;14.20;83.90
35700;DHT22;21818;51.078;12.108;2022-12-24T08:24:53;14.20;83.90
35700;DHT22;21818;51.078;12.108;2022-12-24T08:27:19;14.20;83.80
35700;DHT22;21818;51.078;12.108;2022-12-24T08:29:44;14.20;83.80
35700;DHT22;21818;51.078;12.108;2022-12-24T08:32:10;14.20;83.70
35700;DHT22;21818;51.078;12.108;2022-12-24T08:34:35;14.20;83.70
35700;DHT22;21818;51.078;12.108;2022-12-24T08:37:01;14.20;83.60
35700;DHT22;21818;51.078;12.108;2022-12-24T08:39:26;14.20;83.60
35700;DHT22;21818;51.078;12.108;2022-12-24T08:41:52;14.20;83.50
35700;DHT22;21818;51.078;12.108;2022-12-24T08:44:18;14.30;83.50
35700;DHT22;21818;51.078;12.108;2022-12-24T08:46:43;14.20;83.40
35700;DHT22;21818;51.078;12.108;2022-12-24T08:49:09;14.20;83.30
35700;DHT22;21818;51.078;12.108;2022-12-24T08:51:34;14.20;83.30
35700;DHT22;21818;51.078;12.108;2022-12-24T08:54:00;14.20;83.20
35700;DHT22;21818;51.078;12.108;2022-12-24T08:56:25;14.30;83.20
35700;DHT22;21818;51.078;12.108;2022-12-24T08:58:51;14.30;83.20
35700;DHT22;21818;51.078;12.108;2022-12-24T09:01:18;14.30;83.20
35700;DHT22;21818;51.078;12.108;2022-12-24T09:03:44;14.30;83.10
35700;DHT22;21818;51.078;12.108;2022-12-24T09:06:10;14.30;83.10
35700;DHT22;21818;51.078;12.108;2022-12-24T09:08:36;14.30;83.00
35700;DHT22;21818;51.078;12.108;2022-12-24T09:11:06;14.30;83.00
35700;DHT22;21818;51.078;12.108;2022-12-24T09:13:32;14.30;83.00
35700;DHT22;21818;51.078;12.108;2022-12-24T09:15:58;14.30;82.90
35700;DHT22;21818;51.078;12.108;2022-12-24T09:18:24;14.30;82.90
35700;DHT22;21818;51.078;12.108;2022-12-24T09:20:49;14.40;82.90
35700;DHT22;21818;51.078;12.108;2022-12-24T09:23:15;14.40;82.80
35700;DHT22;21818;51.078;12.108;2022-12-24T09:25:41;14.40;82.70
35700;DHT22;21818;51.078;12.108;2022-12-24T09:28:07;14.40;82.70
35700;DHT22;21818;51.078;12.108;2022-12-24T09:30:32;14.40;82.60
35700;DHT22;21818;51.078;12.108;2022-12-24T09:32:58;14.40;82.60
35700;DHT22;21818;51.078;12.108;2022-12-24T09:35:23;14.40;82.60
35700;DHT22;21818;51.078;12.108;2022-12-24T09:37:49;14.50;82.70
35700;DHT22;21818;51.078;12.108;2022-12-24T09:40:34;14.40;82.60
35700;DHT22;21818;51.078;12.108;2022-12-24T09:43:06;14.40;82.50
35700;DHT22;21818;51.078;12.108;2022-12-24T09:45:39;14.50;82.60
35700;DHT22;21818;51.078;12.108;2022-12-24T09:48:14;14.50;82.50
35700;DHT22;21818;51.078;12.108;2022-12-24T09:50:48;14.50;82.50
35700;DHT22;21818;51.078;12.108;2022-12-24T09:56:01;14.50;82.30
35700;DHT22;21818;51.078;12.108;2022-12-24T09:58:38;14.50;82.40
35700;DHT22;21818;51.078;12.108;2022-12-24T10:01:04;14.50;82.30
35700;DHT22;21818;51.078;12.108;2022-12-24T10:03:30;14.50;82.30
35700;DHT22;21818;51.078;12.108;2022-12-24T10:19:04;14.60;82.40
35700;DHT22;21818;51.078;12.108;2022-12-24T10:22:12;14.50;82.30
35700;DHT22;21818;51.078;12.108;2022-12-24T10:25:08;14.50;82.30
35700;DHT22;21818;51.078;12.108;2022-12-24T10:27:38;14.50;82.40
35700;DHT22;21818;51.078;12.108;2022-12-24T10:30:18;14.50;82.40
35700;DHT22;21818;51.078;12.108;2022-12-24T10:32:47;14.60;82.30
35700;DHT22;21818;51.078;12.108;2022-12-24T10:37:39;14.60;82.20
35700;DHT22;21818;51.078;12.108;2022-12-24T10:40:06;14.60;82.20
35700;DHT22;21818;51.078;12.108;2022-12-24T10:42:40;14.70;82.10
35700;DHT22;21818;51.078;12.108;2022-12-24T10:45:16;14.70;81.90
35700;DHT22;21818;51.078;12.108;2022-12-24T10:47:43;14.80;81.80
35700;DHT22;21818;51.078;12.108;2022-12-24T10:52:50;14.80;81.80
35700;DHT22;21818;51.078;12.108;2022-12-24T10:57:44;14.80;81.70
35700;DHT22;21818;51.078;12.108;2022-12-24T11:00:21;14.80;81.70
35700;DHT22;21818;51.078;12.108;2022-12-24T11:02:49;14.80;81.60
35700;DHT22;21818;51.078;12.108;2022-12-24T11:05:36;14.80;81.60
35700;DHT22;21818;51.078;12.108;2022-12-24T11:10:41;14.80;81.60
35700;DHT22;21818;51.078;12.108;2022-12-24T11:15:59;14.80;81.40
35700;DHT22;21818;51.078;12.108;2022-12-24T11:18:26;14.90;81.50
35700;DHT22;21818;51.078;12.108;2022-12-24T11:20:52;14.90;81.30
35700;DHT22;21818;51.078;12.108;2022-12-24T11:23:17;14.90;81.30
35700;DHT22;21818;51.078;12.108;2022-12-24T11:25:49;15.00;81.30
35700;DHT22;21818;51.078;12.108;2022-12-24T11:28:19;15.00;81.20
35700;DHT22;21818;51.078;12.108;2022-12-24T11:30:57;15.00;81.20
35700;DHT22;21818;51.078;12.108;2022-12-24T11:33:23;15.00;81.10
35700;DHT22;21818;51.078;12.108;2022-12-24T11:35:53;15.00;81.10
35700;DHT22;21818;51.078;12.108;2022-12-24T11:38:26;15.10;81.10
35700;DHT22;21818;51.078;12.108;2022-12-24T11:41:00;15.10;81.10
35700;DHT22;21818;51.078;12.108;2022-12-24T11:43:27;15.10;81.00
35700;DHT22;21818;51.078;12.108;2022-12-24T11:49:13;15.10;81.30
35700;DHT22;21818;51.078;12.108;2022-12-24T11:51:45;15.00;80.90
35700;DHT22;21818;51.078;12.108;2022-12-24T11:54:26;15.10;80.90
35700;DHT22;21818;51.078;12.108;2022-12-24T11:56:54;15.10;80.70
35700;DHT22;21818;51.078;12.108;2022-12-24T11:59:39;15.10;80.80
35700;DHT22;21818;51.078;12.108;2022-12-24T12:02:22;15.10;81.00
35700;DHT22;21818;51.078;12.108;2022-12-24T12:05:02;15.20;81.30
35700;DHT22;21818;51.078;12.108;2022-12-24T12:07:32;15.30;81.30
35700;DHT22;21818;51.078;12.108;2022-12-24T12:10:03;15.30;81.20
35700;DHT22;21818;51.078;12.108;2022-12-24T12:12:36;15.30;81.30
35700;DHT22;21818;51.078;12.108;2022-12-24T12:17:55;15.40;81.10
35700;DHT22;21818;51.078;12.108;2022-12-24T12:20:40;15.40;80.80
35700;DHT22;21818;51.078;12.108;2022-12-24T12:23:19;15.50;80.50
35700;DHT22;21818;51.078;12.108;2022-12-24T12:28:33;15.60;80.20
35700;DHT22;21818;51.078;12.108;2022-12-24T12:31:02;15.60;80.00
35700;DHT22;21818;51.078;12.108;2022-12-24T12:33:40;15.60;79.90
35700;DHT22;21818;51.078;12.108;2022-12-24T12:36:09;15.70;79.80
35700;DHT22;21818;51.078;12.108;2022-12-24T12:38:35;15.80;79.60
35700;DHT22;21818;51.078;12.108;2022-12-24T12:41:24;15.90;79.40
35700;DHT22;21818;51.078;12.108;2022-12-24T12:46:51;16.10;78.90
35700;DHT22;21818;51.078;12.108;2022-12-24T12:49:30;16.10;78.80
35700;DHT22;21818;51.078;12.108;2022-12-24T12:52:32;16.20;78.60
35700;DHT22;21818;51.078;12.108;2022-12-24T12:57:36;16.10;78.90
35700;DHT22;21818;51.078;12.108;2022-12-24T13:00:07;16.00;79.00
35700;DHT22;21818;51.078;12.108;2022-12-24T13:05:38;15.90;79.00
35700;DHT22;21818;51.078;12.108;2022-12-24T13:11:16;15.90;79.10
35700;DHT22;21818;51.078;12.108;2022-12-24T13:21:46;15.70;79.00
35700;DHT22;21818;51.078;12.108;2022-12-24T13:24:30;15.70;79.00
35700;DHT22;21818;51.078;12.108;2022-12-24T13:27:14;15.70;78.90
35700;DHT22;21818;51.078;12.108;2022-12-24T13:29:57;15.60;78.90
35700;DHT22;21818;51.078;12.108;2022-12-24T13:34:52;15.60;79.00
35700;DHT22;21818;51.078;12.108;2022-12-24T13:48:32;15.40;78.80
35700;DHT22;21818;51.078;12.108;2022-12-24T13:51:18;15.40;78.80
35700;DHT22;21818;51.078;12.108;2022-12-24T13:53:46;15.40;78.80
35700;DHT22;21818;51.078;12.108;2022-12-24T13:58:40;15.30;79.00
35700;DHT22;21818;51.078;12.108;2022-12-24T14:01:13;15.30;79.00
35700;DHT22;21818;51.078;12.108;2022-12-24T14:03:47;15.30;79.00
35700;DHT22;21818;51.078;12.108;2022-12-24T14:06:26;15.30;79.00
35700;DHT22;21818;51.078;12.108;2022-12-24T14:09:10;15.30;79.00
35700;DHT22;21818;51.078;12.108;2022-12-24T14:14:39;15.30;79.10
35700;DHT22;21818;51.078;12.108;2022-12-24T14:17:26;15.20;79.20
35700;DHT22;21818;51.078;12.108;2022-12-24T14:19:58;15.20;79.20
35700;DHT22;21818;51.078;12.108;2022-12-24T14:22:29;15.20;79.20
35700;DHT22;21818;51.078;12.108;2022-12-24T14:25:16;15.20;79.20
35700;DHT22;21818;51.078;12.108;2022-12-24T14:27:58;15.20;79.20
35700;DHT22;21818;51.078;12.108;2022-12-24T14:30:26;15.20;79.20
35700;DHT22;21818;51.078;12.108;2022-12-24T14:32:52;15.20;79.30
35700;DHT22;21818;51.078;12.108;2022-12-24T14:35:19;15.20;79.30
35700;DHT22;21818;51.078;12.108;2022-12-24T14:38:34;15.20;79.30
35700;DHT22;21818;51.078;12.108;2022-12-24T14:43:45;15.20;79.20
35700;DHT22;21818;51.078;12.108;2022-12-24T14:46:30;15.10;79.20
35700;DHT22;21818;51.078;12.108;2022-12-24T14:54:37;15.10;79.30
35700;DHT22;21818;51.078;12.108;2022-12-24T14:59:56;15.10;79.30
35700;DHT22;21818;51.078;12.108;2022-12-24T15:02:46;15.10;79.30
35700;DHT22;21818;51.078;12.108;2022-12-24T15:05:15;15.10;79.40
35700;DHT22;21818;51.078;12.108;2022-12-24T15:07:54;15.10;79.40
35700;DHT22;21818;51.078;12.108;2022-12-24T15:10:27;15.00;79.40
35700;DHT22;21818;51.078;12.108;2022-12-24T15:12:55;15.00;79.40
35700;DHT22;21818;51.078;12.108;2022-12-24T15:15:22;15.00;79.50
35700;DHT22;21818;51.078;12.108;2022-12-24T15:17:48;15.00;79.60
35700;DHT22;21818;51.078;12.108;2022-12-24T15:20:17;15.00;79.60
35700;DHT22;21818;51.078;12.108;2022-12-24T15:22:45;15.00;79.60
35700;DHT22;21818;51.078;12.108;2022-12-24T15:25:27;14.90;79.60
35700;DHT22;21818;51.078;12.108;2022-12-24T15:27:53;14.90;79.60
35700;DHT22;21818;51.078;12.108;2022-12-24T15:30:27;14.90;79.70
35700;DHT22;21818;51.078;12.108;2022-12-24T15:32:54;14.90;79.70
35700;DHT22;21818;51.078;12.108;2022-12-24T15:38:34;14.90;79.70
35700;DHT22;21818;51.078;12.108;2022-12-24T15:41:05;14.90;79.70
35700;DHT22;21818;51.078;12.108;2022-12-24T15:43:32;14.90;79.70
35700;DHT22;21818;51.078;12.108;2022-12-24T15:46:03;14.90;79.80
35700;DHT22;21818;51.078;12.108;2022-12-24T15:48:29;14.80;79.70
35700;DHT22;21818;51.078;12.108;2022-12-24T15:51:00;14.80;79.70
35700;DHT22;21818;51.078;12.108;2022-12-24T15:53:33;14.80;79.80
35700;DHT22;21818;51.078;12.108;2022-12-24T15:56:12;14.80;79.80
35700;DHT22;21818;51.078;12.108;2022-12-24T15:58:40;14.80;79.80
35700;DHT22;21818;51.078;12.108;2022-12-24T16:03:39;14.80;79.90
35700;DHT22;21818;51.078;12.108;2022-12-24T16:06:06;14.80;80.00
35700;DHT22;21818;51.078;12.108;2022-12-24T16:08:37;14.80;79.90
35700;DHT22;21818;51.078;12.108;2022-12-24T16:11:39;14.80;79.90
35700;DHT22;21818;51.078;12.108;2022-12-24T16:14:12;14.80;79.90
35700;DHT22;21818;51.078;12.108;2022-12-24T16:16:42;14.80;79.90
35700;DHT22;21818;51.078;12.108;2022-12-24T16:19:25;14.80;79.90
35700;DHT22;21818;51.078;12.108;2022-12-24T16:21:58;14.80;79.90
35700;DHT22;21818;51.078;12.108;2022-12-24T16:24:44;14.80;79.90
35700;DHT22;21818;51.078;12.108;2022-12-24T16:27:12;14.80;80.00
35700;DHT22;21818;51.078;12.108;2022-12-24T16:29:37;14.80;80.00
35700;DHT22;21818;51.078;12.108;2022-12-24T16:32:03;14.70;79.90
35700;DHT22;21818;51.078;12.108;2022-12-24T16:34:30;14.80;80.00
35700;DHT22;21818;51.078;12.108;2022-12-24T16:36:57;14.70;79.90
35700;DHT22;21818;51.078;12.108;2022-12-24T16:39:30;14.70;79.90
35700;DHT22;21818;51.078;12.108;2022-12-24T16:41:58;14.70;80.00
35700;DHT22;21818;51.078;12.108;2022-12-24T16:44:43;14.70;80.00
35700;DHT22;21818;51.078;12.108;2022-12-24T16:47:24;14.70;80.00
35700;DHT22;21818;51.078;12.108;2022-12-24T16:49:50;14.70;80.10
35700;DHT22;21818;51.078;12.108;2022-12-24T16:52:21;14.70;80.10
35700;DHT22;21818;51.078;12.108;2022-12-24T16:54:48;14.60;80.00
35700;DHT22;21818;51.078;12.108;2022-12-24T16:57:14;14.70;80.10
35700;DHT22;21818;51.078;12.108;2022-12-24T16:59:39;14.70;80.10
35700;DHT22;21818;51.078;12.108;2022-12-24T17:02:05;14.60;80.10
35700;DHT22;21818;51.078;12.108;2022-12-24T17:04:32;14.60;80.20
35700;DHT22;21818;51.078;12.108;2022-12-24T17:06:58;14.60;80.20
35700;DHT22;21818;51.078;12.108;2022-12-24T17:09:23;14.60;80.20
35700;DHT22;21818;51.078;12.108;2022-12-24T17:11:49;14.60;80.20
35700;DHT22;21818;51.078;12.108;2022-12-24T17:14:15;14.60;80.30
35700;DHT22;21818;51.078;12.108;2022-12-24T17:16:40;14.60;80.30
35700;DHT22;21818;51.078;12.108;2022-12-24T17:19:06;14.60;80.40
35700;DHT22;21818;51.078;12.108;2022-12-24T17:21:32;14.60;80.40
35700;DHT22;21818;51.078;12.108;2022-12-24T17:23:58;14.60;80.40
35700;DHT22;21818;51.078;12.108;2022-12-24T17:26:24;14.60;80.40
35700;DHT22;21818;51.078;12.108;2022-12-24T17:28:53;14.50;80.40
35700;DHT22;21818;51.078;12.108;2022-12-24T17:31:19;14.50;80.50
35700;DHT22;21818;51.078;12.108;2022-12-24T17:33:47;14.60;80.60
35700;DHT22;21818;51.078;12.108;2022-12-24T17:36:13;14.50;80.50